createdAt,value
2018-03-03T00:02:11.982Z,71.03
2018-03-03T00:04:41.544Z,69.05
2018-03-03T00:07:11.830Z,70.20
2018-03-03T00:09:41.611Z,66.57
2018-03-03T00:12:11.034Z,62.20
2018-03-03T00:14:40.680Z,69.15
2018-03-03T00:17:10.254Z,67.78
2018-03-03T00:19:39.957Z,70.72
2018-03-03T00:22:11.916Z,62.65
2018-03-03T00:24:41.788Z,67.70
2018-03-03T00:27:11.422Z,75.78
2018-03-03T00:29:41.299Z,73.07
2018-03-03T00:32:11.048Z,74.43
2018-03-03T00:34:40.829Z,66.47
2018-03-03T00:40:43.689Z,74.50
2018-03-03T00:43:13.224Z,63.47
2018-03-03T00:45:44.460Z,67.95
2018-03-03T00:48:14.403Z,73.90
2018-03-03T00:50:47.700Z,80.25
2018-03-03T00:53:18.105Z,72.25
2018-03-03T00:55:47.745Z,81.78
2018-03-03T00:59:37.332Z,65.62
2018-03-03T01:02:07.037Z,71.12
2018-03-03T01:05:08.116Z,69.85
2018-03-03T01:08:40.417Z,72.57
2018-03-03T01:11:10.552Z,68.22
2018-03-03T01:13:40.466Z,69.22
2018-03-03T01:16:10.095Z,71.57
2018-03-03T01:18:40.388Z,71.18
2018-03-03T01:21:10.311Z,71.55
2018-03-03T01:23:40.014Z,83.03
2018-03-03T01:26:10.578Z,82.45
2018-03-03T01:28:41.725Z,75.80
2018-03-03T01:31:12.393Z,82.72
2018-03-03T01:33:42.411Z,87.25
2018-03-03T01:36:12.486Z,71.72
2018-03-03T01:38:42.963Z,68.00
2018-03-03T01:41:12.697Z,74.18
2018-03-03T01:43:42.621Z,69.93
2018-03-03T01:46:12.329Z,68.50
2018-03-03T01:48:42.083Z,70.07
2018-03-03T01:51:17.128Z,70.40
2018-03-03T01:53:46.694Z,88.18
2018-03-03T01:56:17.246Z,77.62
2018-03-03T01:58:47.072Z,80.85
2018-03-03T02:01:16.956Z,72.53
2018-03-03T02:03:47.318Z,67.47
2018-03-03T02:06:22.134Z,77.75
2018-03-03T02:08:53.777Z,75.30
2018-03-03T02:11:24.130Z,70.15
2018-03-03T02:13:54.150Z,76.68
2018-03-03T02:16:24.100Z,76.15
2018-03-03T02:18:53.668Z,78.53
2018-03-03T02:21:23.273Z,75.12
2018-03-03T02:23:52.899Z,65.87
2018-03-03T02:26:22.318Z,84.90
2018-03-03T02:28:53.179Z,73.45
2018-03-03T02:31:26.970Z,72.55
2018-03-03T02:33:56.465Z,76.93
2018-03-03T02:36:32.069Z,73.57
2018-03-03T02:39:01.282Z,74.20
2018-03-03T02:41:30.444Z,69.40
2018-03-03T02:44:00.793Z,69.07
2018-03-03T02:46:30.259Z,75.35
2018-03-03T02:48:59.593Z,82.12
2018-03-03T02:51:29.256Z,72.87
2018-03-03T02:53:58.934Z,72.28
2018-03-03T02:56:31.205Z,69.70
2018-03-03T02:59:00.873Z,77.00
2018-03-03T03:01:30.127Z,62.95
2018-03-03T03:03:59.515Z,76.68
2018-03-03T03:06:28.732Z,68.90
2018-03-03T03:08:57.941Z,76.45
2018-03-03T03:11:27.448Z,75.25
2018-03-03T03:13:56.604Z,74.75
2018-03-03T03:16:25.934Z,83.75
2018-03-03T03:18:55.131Z,75.93
2018-03-03T03:21:24.423Z,76.10
2018-03-03T03:23:53.735Z,75.28
2018-03-03T03:26:26.696Z,65.85
2018-03-03T03:28:56.025Z,70.20
2018-03-03T03:31:25.096Z,76.07
2018-03-03T03:33:54.502Z,71.68
2018-03-03T03:36:23.739Z,73.40
2018-03-03T03:38:53.630Z,68.78
2018-03-03T03:41:22.995Z,79.05
2018-03-03T03:43:52.183Z,72.43
2018-03-03T03:46:21.416Z,71.00
2018-03-03T03:48:50.543Z,73.80
2018-03-03T03:51:20.247Z,73.28
2018-03-03T03:53:50.130Z,71.05
2018-03-03T03:56:19.445Z,70.90
2018-03-03T03:58:48.502Z,68.72
2018-03-03T04:01:17.627Z,82.55
2018-03-03T04:03:46.750Z,76.07
2018-03-03T04:06:16.791Z,70.50
2018-03-03T04:08:45.895Z,71.95
2018-03-03T04:11:15.025Z,77.60
2018-03-03T04:13:44.437Z,79.72
2018-03-03T04:16:13.837Z,80.25
2018-03-03T04:18:42.947Z,69.65
2018-03-03T04:21:12.057Z,69.90
2018-03-03T04:23:42.851Z,71.68
2018-03-03T04:26:12.196Z,71.25
2018-03-03T04:28:42.315Z,80.55
2018-03-03T04:31:12.201Z,72.62
2018-03-03T04:33:41.570Z,63.63
2018-03-03T04:36:10.894Z,73.20
2018-03-03T04:38:40.538Z,68.62
2018-03-03T04:41:10.496Z,68.60
2018-03-03T04:43:39.813Z,80.80
2018-03-03T04:46:09.097Z,77.70
2018-03-03T04:48:39.214Z,75.07
2018-03-03T04:51:08.456Z,76.22
2018-03-03T04:53:37.720Z,80.03
2018-03-03T04:56:07.940Z,76.80
2018-03-03T04:58:37.544Z,68.18
2018-03-03T05:01:14.425Z,74.15
2018-03-03T05:03:47.743Z,67.80
2018-03-03T05:06:17.149Z,75.72
2018-03-03T05:08:46.804Z,62.40
2018-03-03T05:11:16.099Z,66.32
2018-03-03T05:13:45.769Z,75.62
2018-03-03T05:16:16.361Z,70.78
2018-03-03T05:19:55.364Z,66.78
2018-03-03T05:22:26.075Z,69.15
2018-03-03T05:24:57.462Z,71.50
2018-03-03T05:27:26.744Z,68.03
2018-03-03T05:29:57.090Z,68.00
2018-03-03T05:32:26.637Z,73.97
2018-03-03T05:34:56.336Z,73.45
2018-03-03T05:37:25.942Z,77.65
2018-03-03T05:39:55.488Z,61.28
2018-03-03T05:42:25.763Z,69.80
2018-03-03T05:44:55.382Z,71.47
2018-03-03T05:47:24.900Z,66.80
2018-03-03T05:49:54.743Z,84.43
2018-03-03T05:52:24.833Z,74.50
2018-03-03T05:54:54.541Z,67.75
2018-03-03T05:57:24.709Z,73.68
2018-03-03T05:59:54.352Z,72.85
2018-03-03T06:02:24.172Z,72.20
2018-03-03T06:04:53.667Z,69.57
2018-03-03T06:07:24.500Z,70.78
2018-03-03T06:09:53.947Z,88.68
2018-03-03T06:12:24.125Z,80.47
2018-03-03T06:14:55.673Z,77.05
2018-03-03T06:17:26.110Z,75.45
2018-03-03T06:19:55.600Z,75.75
2018-03-03T06:22:25.349Z,77.82
2018-03-03T06:24:55.194Z,79.37
2018-03-03T06:28:44.252Z,76.90
2018-03-03T06:31:14.817Z,71.80
2018-03-03T06:33:44.533Z,80.40
2018-03-03T06:36:17.060Z,62.20
2018-03-03T06:39:02.961Z,68.35
2018-03-03T06:41:32.940Z,70.45
2018-03-03T06:44:03.663Z,71.07
2018-03-03T06:46:33.383Z,68.22
2018-03-03T06:49:03.346Z,74.18
2018-03-03T06:51:33.124Z,64.80
2018-03-03T06:54:02.931Z,70.57
2018-03-03T06:56:32.686Z,65.60
2018-03-03T06:59:02.649Z,62.92
2018-03-03T07:01:33.324Z,68.95
2018-03-03T07:04:03.957Z,65.65
2018-03-03T07:06:33.597Z,66.45
2018-03-03T07:09:03.306Z,78.50
2018-03-03T07:11:33.120Z,69.75
2018-03-03T07:14:03.238Z,71.68
2018-03-03T07:16:33.380Z,67.85
2018-03-03T07:19:03.839Z,61.63
2018-03-03T07:21:34.535Z,66.85
2018-03-03T07:24:04.323Z,73.68
2018-03-03T07:26:34.056Z,69.43
2018-03-03T07:29:04.217Z,65.55
2018-03-03T07:31:34.737Z,66.65
2018-03-03T07:34:05.042Z,59.35
2018-03-03T07:36:35.028Z,73.07
2018-03-03T07:39:05.209Z,66.07
2018-03-03T07:41:36.636Z,67.93
2018-03-03T07:44:06.437Z,66.25
2018-03-03T07:46:36.131Z,65.30
2018-03-03T07:49:06.021Z,68.70
2018-03-03T07:51:37.216Z,64.25
2018-03-03T07:54:06.794Z,63.45
2018-03-03T07:56:45.849Z,66.10
2018-03-03T07:59:15.458Z,63.78
2018-03-03T08:01:45.260Z,67.20
2018-03-03T08:04:15.005Z,66.75
2018-03-03T08:06:45.469Z,59.75
2018-03-03T08:09:15.265Z,64.80
2018-03-03T08:11:45.093Z,66.95
2018-03-03T08:14:14.730Z,69.05
2018-03-03T08:16:44.301Z,66.90
2018-03-03T08:19:14.037Z,73.85
2018-03-03T08:21:49.307Z,68.25
2018-03-03T08:24:19.760Z,60.50
2018-03-03T08:26:50.092Z,67.35
2018-03-03T08:29:19.677Z,66.57
2018-03-03T08:31:50.297Z,65.75
2018-03-03T08:34:20.522Z,80.78
2018-03-03T08:36:50.978Z,64.32
2018-03-03T08:39:20.781Z,70.45
2018-03-03T08:41:50.495Z,66.25
2018-03-03T08:44:20.122Z,72.10
2018-03-03T08:46:49.629Z,78.95
2018-03-03T08:50:22.502Z,72.10
2018-03-03T08:52:51.998Z,72.15
2018-03-03T08:55:21.675Z,66.47
2018-03-03T08:57:51.263Z,66.60
2018-03-03T09:00:20.818Z,72.32
2018-03-03T09:03:06.082Z,76.45
2018-03-03T09:05:37.486Z,72.20
2018-03-03T09:08:06.932Z,62.80
2018-03-03T09:10:37.197Z,82.78
2018-03-03T09:13:06.693Z,61.17
2018-03-03T09:15:36.105Z,70.10
2018-03-03T09:18:05.748Z,72.57
2018-03-03T09:20:35.233Z,68.45
2018-03-03T09:23:04.783Z,77.47
2018-03-03T09:25:35.451Z,76.25
2018-03-03T09:28:05.832Z,70.82
2018-03-03T09:30:36.306Z,70.45
2018-03-03T09:33:05.853Z,85.97
2018-03-03T09:35:35.502Z,82.65
2018-03-03T09:38:05.356Z,70.40
2018-03-03T09:40:35.017Z,80.30
2018-03-03T09:43:04.646Z,68.20
2018-03-03T09:45:34.310Z,70.28
2018-03-03T09:48:04.652Z,76.68
2018-03-03T09:50:35.028Z,87.65
2018-03-03T09:53:04.500Z,82.37
2018-03-03T09:55:40.630Z,67.50
2018-03-03T09:58:11.098Z,75.00
2018-03-03T10:00:40.825Z,85.80
2018-03-03T10:03:10.348Z,85.15
2018-03-03T10:05:40.112Z,69.12
2018-03-03T10:08:10.401Z,70.78
2018-03-03T10:10:40.708Z,75.72
2018-03-03T10:13:11.898Z,80.75
2018-03-03T10:15:42.395Z,76.43
2018-03-03T10:18:12.545Z,79.97
2018-03-03T10:20:42.426Z,70.53
2018-03-03T10:23:15.481Z,84.82
2018-03-03T10:25:46.461Z,83.22
2018-03-03T10:28:16.100Z,85.22
2018-03-03T10:30:45.860Z,79.47
2018-03-03T10:33:15.958Z,78.90
2018-03-03T10:35:45.485Z,87.20
2018-03-03T10:38:15.100Z,79.93
2018-03-03T10:40:45.348Z,97.15
2018-03-03T10:43:15.034Z,81.57
2018-03-03T10:45:45.621Z,88.90
2018-03-03T10:48:15.367Z,90.22
2018-03-03T10:50:45.035Z,94.05
2018-03-03T10:53:15.112Z,85.03
2018-03-03T10:55:44.756Z,92.65
2018-03-03T10:58:14.359Z,81.90
2018-03-03T11:00:44.486Z,84.05
2018-03-03T11:03:19.001Z,91.70
2018-03-03T11:05:48.460Z,87.55
2018-03-03T11:08:18.642Z,88.43
2018-03-03T11:10:48.385Z,87.22
2018-03-03T11:13:18.615Z,88.45
2018-03-03T11:15:49.122Z,83.37
2018-03-03T11:18:19.465Z,83.93
2018-03-03T11:20:49.705Z,82.82
2018-03-03T11:23:20.002Z,83.45
2018-03-03T11:25:50.154Z,82.95
2018-03-03T11:28:19.783Z,88.03
2018-03-03T11:30:50.119Z,84.32
2018-03-03T11:33:19.660Z,83.37
2018-03-03T11:35:49.200Z,83.07
2018-03-03T11:38:18.712Z,88.07
2018-03-03T11:40:48.904Z,82.95
2018-03-03T11:43:19.250Z,77.45
2018-03-03T11:45:49.606Z,88.87
2018-03-03T11:48:19.143Z,90.32
2018-03-03T11:50:49.592Z,79.50
2018-03-03T11:53:22.856Z,97.05
2018-03-03T11:55:52.538Z,102.12
2018-03-03T11:58:21.970Z,89.62
2018-03-03T12:00:51.498Z,85.53
2018-03-03T12:03:21.740Z,85.43
2018-03-03T12:05:51.167Z,91.43
2018-03-03T12:08:21.388Z,94.68
2018-03-03T12:10:51.670Z,89.30
2018-03-03T12:13:21.133Z,83.62
2018-03-03T12:15:50.738Z,85.50
2018-03-03T12:18:20.304Z,84.32
2018-03-03T12:20:49.766Z,89.97
2018-03-03T12:23:19.508Z,102.47
2018-03-03T12:25:49.886Z,79.47
2018-03-03T12:28:19.491Z,75.03
2018-03-03T12:30:49.798Z,80.53
2018-03-03T12:33:19.371Z,87.18
2018-03-03T12:35:49.652Z,80.15
2018-03-03T12:38:19.128Z,85.30
2018-03-03T12:40:48.557Z,80.57
2018-03-03T12:43:17.971Z,82.40
2018-03-03T12:45:52.101Z,88.82
2018-03-03T12:48:22.387Z,79.37
2018-03-03T12:50:52.112Z,77.75
2018-03-03T12:53:21.847Z,86.80
2018-03-03T12:55:52.200Z,80.15
2018-03-03T12:58:21.716Z,77.53
2018-03-03T13:00:52.413Z,81.55
2018-03-03T13:03:22.604Z,83.65
2018-03-03T13:05:52.174Z,81.90
2018-03-03T13:08:21.743Z,88.22
2018-03-03T13:10:52.135Z,78.28
2018-03-03T13:13:21.598Z,84.13
2018-03-03T13:15:51.838Z,79.22
2018-03-03T13:18:21.420Z,87.12
2018-03-03T13:20:51.026Z,78.03
2018-03-03T13:23:20.552Z,83.40
2018-03-03T13:25:49.915Z,83.75
2018-03-03T13:28:20.131Z,80.55
2018-03-03T13:30:53.239Z,87.62
2018-03-03T13:33:22.790Z,83.65
2018-03-03T13:35:53.219Z,85.18
2018-03-03T13:38:22.763Z,85.82
2018-03-03T13:40:53.029Z,81.72
2018-03-03T13:43:23.715Z,79.07
2018-03-03T13:45:53.200Z,81.75
2018-03-03T13:48:23.912Z,84.82
2018-03-03T13:50:54.306Z,77.80
2018-03-03T13:53:23.920Z,91.32
2018-03-03T13:55:54.650Z,82.55
2018-03-03T13:58:24.322Z,83.62
2018-03-03T14:00:53.847Z,96.43
2018-03-03T14:03:25.152Z,79.43
2018-03-03T14:05:54.820Z,83.18
2018-03-03T14:08:24.335Z,82.78
2018-03-03T14:10:54.524Z,77.30
2018-03-03T14:13:25.167Z,80.20
2018-03-03T14:15:55.461Z,87.28
2018-03-03T14:18:25.625Z,84.15
2018-03-03T14:20:55.081Z,79.47
2018-03-03T14:23:24.596Z,83.90
2018-03-03T14:25:54.158Z,86.35
2018-03-03T14:28:23.929Z,83.50
2018-03-03T14:30:53.406Z,81.35
2018-03-03T14:33:23.154Z,86.68
2018-03-03T14:35:52.821Z,74.18
2018-03-03T14:38:23.056Z,80.50
2018-03-03T14:40:52.460Z,94.50
2018-03-03T14:43:21.974Z,78.35
2018-03-03T14:45:55.151Z,86.70
2018-03-03T14:48:25.577Z,81.78
2018-03-03T14:50:56.049Z,86.68
2018-03-03T14:53:39.812Z,82.20
2018-03-03T14:56:09.364Z,84.28
2018-03-03T14:58:39.623Z,78.55
2018-03-03T15:03:45.392Z,82.30
2018-03-03T15:06:14.896Z,83.68
2018-03-03T15:08:44.433Z,82.40
2018-03-03T15:11:14.121Z,88.75
2018-03-03T15:15:03.406Z,78.85
2018-03-03T15:17:33.751Z,85.07
2018-03-03T15:20:03.521Z,84.82
2018-03-03T15:22:33.432Z,74.72
2018-03-03T15:25:03.298Z,81.03
2018-03-03T15:27:32.732Z,79.90
2018-03-03T15:30:02.993Z,80.78
2018-03-03T15:32:32.419Z,74.90
2018-03-03T15:35:02.625Z,83.72
2018-03-03T15:37:32.773Z,81.12
2018-03-03T15:40:02.180Z,82.60
2018-03-03T15:42:31.581Z,87.37
2018-03-03T15:45:00.954Z,83.32
2018-03-03T15:47:31.135Z,82.15
2018-03-03T15:50:00.666Z,76.82
2018-03-03T15:52:30.123Z,82.30
2018-03-03T15:55:00.422Z,75.07
2018-03-03T15:57:30.660Z,85.00
2018-03-03T16:00:03.875Z,81.65
2018-03-03T16:02:34.281Z,87.45
2018-03-03T16:05:04.690Z,75.12
2018-03-03T16:07:34.296Z,72.75
2018-03-03T16:10:04.640Z,77.28
2018-03-03T16:12:43.530Z,70.15
2018-03-03T16:15:14.043Z,73.43
2018-03-03T16:17:43.836Z,83.87
2018-03-03T16:20:13.952Z,84.32
2018-03-03T16:22:43.398Z,85.62
2018-03-03T16:25:12.872Z,72.45
2018-03-03T16:27:42.280Z,77.57
2018-03-03T16:30:11.787Z,69.87
2018-03-03T16:32:42.063Z,78.40
2018-03-03T16:35:12.219Z,82.37
2018-03-03T16:37:44.209Z,76.60
2018-03-03T16:40:14.504Z,80.18
2018-03-03T16:42:44.676Z,74.20
2018-03-03T16:45:14.068Z,70.60
2018-03-03T16:47:43.608Z,76.47
2018-03-03T16:50:13.862Z,81.12
2018-03-03T16:52:43.362Z,76.82
2018-03-03T16:55:12.944Z,72.55
2018-03-03T16:57:42.454Z,80.12
2018-03-03T17:00:12.484Z,80.25
2018-03-03T17:02:41.912Z,75.72
2018-03-03T17:05:12.313Z,89.05
2018-03-03T17:07:42.004Z,79.30
2018-03-03T17:10:12.236Z,76.57
2018-03-03T17:12:42.589Z,71.45
2018-03-03T17:15:13.038Z,84.32
2018-03-03T17:17:42.425Z,81.10
2018-03-03T17:20:12.971Z,81.35
2018-03-03T17:22:42.521Z,78.87
2018-03-03T17:25:11.965Z,80.38
2018-03-03T17:27:41.459Z,78.57
2018-03-03T17:30:11.004Z,80.82
2018-03-03T17:32:40.435Z,73.53
2018-03-03T17:35:10.588Z,75.32
2018-03-03T17:37:40.037Z,73.47
2018-03-03T17:40:09.455Z,85.80
2018-03-03T17:42:39.268Z,85.22
2018-03-03T17:45:09.594Z,72.78
2018-03-03T17:47:39.815Z,71.15
2018-03-03T17:50:10.117Z,68.97
2018-03-03T17:52:39.653Z,72.47
2018-03-03T17:55:09.072Z,77.05
2018-03-03T17:57:45.841Z,73.78
2018-03-03T18:00:15.825Z,78.82
2018-03-03T18:02:45.334Z,70.65
2018-03-03T18:05:15.567Z,64.60
2018-03-03T18:07:45.737Z,68.50
2018-03-03T18:10:15.237Z,71.87
2018-03-03T18:12:44.736Z,70.37
2018-03-03T18:15:14.471Z,66.43
2018-03-03T18:17:43.869Z,67.47
2018-03-03T18:20:13.671Z,72.30
2018-03-03T18:22:43.068Z,68.53
2018-03-03T18:25:12.647Z,71.55
2018-03-03T18:27:42.104Z,64.97
2018-03-03T18:30:12.263Z,66.45
2018-03-03T18:32:45.622Z,74.55
2018-03-03T18:35:15.035Z,70.53
2018-03-03T18:37:45.238Z,74.07
2018-03-03T18:40:14.573Z,74.15
2018-03-03T18:42:44.860Z,75.95
2018-03-03T18:45:14.389Z,72.78
2018-03-03T18:47:44.630Z,72.43
2018-03-03T18:50:14.064Z,79.12
2018-03-03T18:52:43.583Z,70.00
2018-03-03T18:55:13.051Z,90.07
2018-03-03T18:57:42.416Z,76.00
2018-03-03T19:00:11.820Z,72.90
2018-03-03T19:02:41.332Z,77.57
2018-03-03T19:05:11.566Z,74.85
2018-03-03T19:07:42.113Z,80.20
2018-03-03T19:10:11.562Z,75.00
2018-03-03T19:12:41.776Z,80.07
2018-03-03T19:15:11.223Z,77.40
2018-03-03T19:17:41.475Z,86.68
2018-03-03T19:20:10.916Z,80.78
2018-03-03T19:22:40.337Z,79.55
2018-03-03T19:25:09.741Z,85.20
2018-03-03T19:27:40.074Z,84.68
2018-03-03T19:30:10.487Z,74.75
2018-03-03T19:32:40.119Z,77.45
2018-03-03T19:35:10.345Z,73.93
2018-03-03T19:37:39.814Z,83.57
2018-03-03T19:40:09.342Z,77.32
2018-03-03T19:42:39.547Z,78.97
2018-03-03T19:45:09.725Z,74.97
2018-03-03T19:47:39.266Z,75.25
2018-03-03T19:50:08.869Z,81.85
2018-03-03T19:52:38.466Z,76.00
2018-03-03T19:55:07.910Z,72.95
2018-03-03T19:57:38.210Z,82.57
2018-03-03T20:00:07.901Z,72.70
2018-03-03T20:02:37.407Z,78.25
2018-03-03T20:05:06.994Z,78.90
2018-03-03T20:07:36.552Z,75.95
2018-03-03T20:10:06.636Z,77.50
2018-03-03T20:12:35.976Z,84.65
2018-03-03T20:15:05.442Z,73.10
2018-03-03T20:17:34.721Z,82.12
2018-03-03T20:20:04.256Z,82.40
2018-03-03T20:22:33.848Z,80.80
2018-03-03T20:25:03.176Z,86.80
2018-03-03T20:27:33.383Z,88.80
2018-03-03T20:30:02.781Z,95.70
2018-03-03T20:32:32.267Z,101.45
2018-03-03T20:35:01.566Z,100.03
2018-03-03T20:37:31.196Z,105.37
2018-03-03T20:40:00.562Z,94.90
2018-03-03T20:42:30.953Z,91.32
2018-03-03T20:45:00.433Z,104.63
2018-03-03T20:47:29.817Z,98.57
2018-03-03T20:49:59.971Z,105.85
2018-03-03T20:52:30.288Z,109.65
2018-03-03T20:55:00.547Z,91.12
2018-03-03T20:57:30.133Z,95.35
2018-03-03T21:00:00.377Z,102.00
2018-03-03T21:02:30.531Z,102.85
2018-03-03T21:04:59.861Z,104.80
2018-03-03T21:07:31.495Z,103.45
2018-03-03T21:10:00.951Z,89.30
2018-03-03T21:12:30.564Z,87.30
2018-03-03T21:15:00.689Z,98.00
2018-03-03T21:17:30.065Z,96.10
2018-03-03T21:20:00.521Z,97.07
2018-03-03T21:22:30.734Z,109.22
2018-03-03T21:25:00.140Z,96.60
2018-03-03T21:27:30.761Z,101.55
2018-03-03T21:33:32.680Z,92.05
2018-03-03T21:36:02.847Z,103.72
2018-03-03T21:38:33.081Z,116.95
2018-03-03T21:41:03.488Z,91.15
2018-03-03T21:43:32.984Z,95.38
2018-03-03T21:46:02.412Z,98.65
2018-03-03T21:48:32.503Z,95.07
2018-03-03T21:51:02.781Z,98.25
2018-03-03T21:53:32.282Z,89.53
2018-03-03T21:56:02.504Z,97.12
2018-03-03T21:58:31.891Z,93.07
2018-03-03T22:01:01.366Z,85.45
2018-03-03T22:03:30.937Z,94.97
2018-03-03T22:06:00.493Z,93.30
2018-03-03T22:08:30.136Z,89.50
2018-03-03T22:10:59.596Z,86.60
2018-03-03T22:13:29.016Z,87.40
2018-03-03T22:15:59.386Z,88.50
2018-03-03T22:18:28.840Z,87.85
2018-03-03T22:20:59.151Z,80.12
2018-03-03T22:23:29.357Z,90.38
2018-03-03T22:25:58.989Z,89.90
2018-03-03T22:28:29.300Z,91.45
2018-03-03T22:30:59.091Z,93.25
2018-03-03T22:33:28.564Z,86.63
2018-03-03T22:35:58.293Z,92.18
2018-03-03T22:38:28.003Z,86.93
2018-03-03T22:40:57.743Z,88.78
2018-03-03T22:43:27.325Z,88.43
2018-03-03T22:45:57.656Z,100.30
2018-03-03T22:48:28.264Z,88.30
2018-03-03T22:50:57.816Z,88.65
2018-03-03T22:53:27.518Z,102.50
2018-03-03T22:55:58.156Z,91.30
2018-03-03T22:58:27.720Z,93.62
2018-03-03T23:00:57.327Z,98.68
2018-03-03T23:03:26.806Z,90.60
2018-03-03T23:05:56.978Z,89.85
2018-03-03T23:08:26.469Z,92.97
2018-03-03T23:10:55.964Z,88.95
2018-03-03T23:13:25.403Z,90.07
2018-03-03T23:15:54.788Z,86.22
2018-03-03T23:18:24.333Z,97.22
2018-03-03T23:20:54.663Z,87.82
2018-03-03T23:23:24.188Z,83.12
2018-03-03T23:25:53.625Z,80.75
2018-03-03T23:28:23.173Z,85.53
2018-03-03T23:30:53.560Z,90.40
2018-03-03T23:33:23.154Z,99.28
2018-03-03T23:35:52.840Z,90.32
2018-03-03T23:38:22.512Z,79.93
2018-03-03T23:40:52.776Z,87.55
2018-03-03T23:43:22.342Z,96.43
2018-03-03T23:45:52.527Z,82.70
2018-03-03T23:48:22.115Z,87.07
2018-03-03T23:50:51.565Z,80.12
2018-03-03T23:53:21.897Z,78.68
2018-03-03T23:55:52.278Z,86.80
2018-03-03T23:58:22.087Z,90.75
